sensor_id;sensor_type;location;lat;lon;timestamp;temperature;humidity
18189;DHT22;9219;50.396;8.546;2023-07-20T00:00:10;17.20;99.90
18189;DHT22;9219;50.396;8.546;2023-07-20T00:02:39;17.30;99.90
18189;DHT22;9219;50.396;8.546;2023-07-20T00:05:07;17.20;99.90
18189;DHT22;9219;50.396;8.546;2023-07-20T00:07:35;17.30;99.90
18189;DHT22;9219;50.396;8.546;2023-07-20T00:14:26;17.30;99.90
18189;DHT22;9219;50.396;8.546;2023-07-20T00:16:55;17.00;99.90
18189;DHT22;9219;50.396;8.546;2023-07-20T00:19:26;16.90;99.90
18189;DHT22;9219;50.396;8.546;2023-07-20T00:21:54;16.90;99.90
18189;DHT22;9219;50.396;8.546;2023-07-20T00:24:22;16.90;99.90
18189;DHT22;9219;50.396;8.546;2023-07-20T00:26:50;16.90;99.90
18189;DHT22;9219;50.396;8.546;2023-07-20T00:29:18;16.90;99.90
18189;DHT22;9219;50.396;8.546;2023-07-20T00:34:37;16.70;99.90
18189;DHT22;9219;50.396;8.546;2023-07-20T00:37:05;16.40;99.90
18189;DHT22;9219;50.396;8.546;2023-07-20T00:39:32;16.20;99.90
18189;DHT22;9219;50.396;8.546;2023-07-20T00:42:00;16.20;99.90
18189;DHT22;9219;50.396;8.546;2023-07-20T00:44:27;16.10;99.90
18189;DHT22;9219;50.396;8.546;2023-07-20T00:46:56;16.00;99.90
18189;DHT22;9219;50.396;8.546;2023-07-20T00:49:25;16.10;99.90
18189;DHT22;9219;50.396;8.546;2023-07-20T00:56:59;16.20;99.90
18189;DHT22;9219;50.396;8.546;2023-07-20T00:59:28;16.30;99.90
18189;DHT22;9219;50.396;8.546;2023-07-20T01:01:56;16.40;99.90
18189;DHT22;9219;50.396;8.546;2023-07-20T01:04:24;16.50;99.90
18189;DHT22;9219;50.396;8.546;2023-07-20T01:06:57;16.50;99.90
18189;DHT22;9219;50.396;8.546;2023-07-20T01:09:28;16.20;99.90
18189;DHT22;9219;50.396;8.546;2023-07-20T01:12:05;16.10;99.90
18189;DHT22;9219;50.396;8.546;2023-07-20T01:14:39;16.10;99.90
18189;DHT22;9219;50.396;8.546;2023-07-20T01:20:20;16.00;99.90
18189;DHT22;9219;50.396;8.546;2023-07-20T01:28:58;16.30;99.90
18189;DHT22;9219;50.396;8.546;2023-07-20T01:31:32;16.30;99.90
18189;DHT22;9219;50.396;8.546;2023-07-20T01:34:04;16.30;99.90
18189;DHT22;9219;50.396;8.546;2023-07-20T01:40:28;16.30;99.90
18189;DHT22;9219;50.396;8.546;2023-07-20T01:42:57;16.30;99.90
18189;DHT22;9219;50.396;8.546;2023-07-20T01:45:25;16.20;99.90
18189;DHT22;9219;50.396;8.546;2023-07-20T01:47:53;16.20;99.90
18189;DHT22;9219;50.396;8.546;2023-07-20T01:50:22;16.20;99.90
18189;DHT22;9219;50.396;8.546;2023-07-20T01:52:49;16.10;99.90
18189;DHT22;9219;50.396;8.546;2023-07-20T01:55:17;16.20;99.90
18189;DHT22;9219;50.396;8.546;2023-07-20T01:57:46;16.10;99.90
18189;DHT22;9219;50.396;8.546;2023-07-20T02:04:43;16.00;99.90
18189;DHT22;9219;50.396;8.546;2023-07-20T02:07:11;16.20;99.90
18189;DHT22;9219;50.396;8.546;2023-07-20T02:09:39;16.30;99.90
18189;DHT22;9219;50.396;8.546;2023-07-20T02:12:08;16.20;99.90
18189;DHT22;9219;50.396;8.546;2023-07-20T02:14:35;16.20;99.90
18189;DHT22;9219;50.396;8.546;2023-07-20T02:17:06;16.30;99.90
18189;DHT22;9219;50.396;8.546;2023-07-20T02:19:37;16.20;99.90
18189;DHT22;9219;50.396;8.546;2023-07-20T02:24:52;16.10;99.90
18189;DHT22;9219;50.396;8.546;2023-07-20T02:27:20;16.40;99.90
18189;DHT22;9219;50.396;8.546;2023-07-20T02:29:48;16.60;99.90
18189;DHT22;9219;50.396;8.546;2023-07-20T02:32:16;16.60;99.90
18189;DHT22;9219;50.396;8.546;2023-07-20T02:34:44;16.60;99.90
18189;DHT22;9219;50.396;8.546;2023-07-20T02:37:12;16.70;99.90
18189;DHT22;9219;50.396;8.546;2023-07-20T02:39:40;16.50;99.90
18189;DHT22;9219;50.396;8.546;2023-07-20T02:47:08;16.60;99.90
18189;DHT22;9219;50.396;8.546;2023-07-20T02:49:36;16.60;99.90
18189;DHT22;9219;50.396;8.546;2023-07-20T02:52:05;16.50;99.90
18189;DHT22;9219;50.396;8.546;2023-07-20T02:54:33;16.40;99.90
18189;DHT22;9219;50.396;8.546;2023-07-20T02:57:00;16.30;99.90
18189;DHT22;9219;50.396;8.546;2023-07-20T02:59:34;16.20;99.90
18189;DHT22;9219;50.396;8.546;2023-07-20T03:02:01;16.30;99.90
18189;DHT22;9219;50.396;8.546;2023-07-20T03:09:35;16.60;99.90
18189;DHT22;9219;50.396;8.546;2023-07-20T03:12:04;16.70;99.90
18189;DHT22;9219;50.396;8.546;2023-07-20T03:14:33;16.60;99.90
18189;DHT22;9219;50.396;8.546;2023-07-20T03:17:00;16.70;99.90
18189;DHT22;9219;50.396;8.546;2023-07-20T03:19:28;16.60;99.90
18189;DHT22;9219;50.396;8.546;2023-07-20T03:21:55;16.50;99.90
18189;DHT22;9219;50.396;8.546;2023-07-20T03:24:23;16.70;99.90
18189;DHT22;9219;50.396;8.546;2023-07-20T03:31:51;16.90;99.90
18189;DHT22;9219;50.396;8.546;2023-07-20T03:34:21;16.50;99.90
18189;DHT22;9219;50.396;8.546;2023-07-20T03:36:49;16.40;99.90
18189;DHT22;9219;50.396;8.546;2023-07-20T03:39:18;16.40;99.90
18189;DHT22;9219;50.396;8.546;2023-07-20T03:41:48;16.00;99.90
18189;DHT22;9219;50.396;8.546;2023-07-20T03:44:18;15.80;99.90
18189;DHT22;9219;50.396;8.546;2023-07-20T03:46:46;15.90;99.90
18189;DHT22;9219;50.396;8.546;2023-07-20T03:54:19;15.80;99.90
18189;DHT22;9219;50.396;8.546;2023-07-20T03:56:49;15.70;99.90
18189;DHT22;9219;50.396;8.546;2023-07-20T03:59:17;15.60;99.90
18189;DHT22;9219;50.396;8.546;2023-07-20T04:01:45;15.50;99.90
18189;DHT22;9219;50.396;8.546;2023-07-20T04:04:15;15.60;99.90
18189;DHT22;9219;50.396;8.546;2023-07-20T04:06:43;15.60;99.90
18189;DHT22;9219;50.396;8.546;2023-07-20T04:09:12;15.70;99.90
18189;DHT22;9219;50.396;8.546;2023-07-20T04:16:42;15.70;99.90
18189;DHT22;9219;50.396;8.546;2023-07-20T04:19:10;15.50;99.90
18189;DHT22;9219;50.396;8.546;2023-07-20T04:21:40;15.70;99.90
18189;DHT22;9219;50.396;8.546;2023-07-20T04:24:11;15.70;99.90
18189;DHT22;9219;50.396;8.546;2023-07-20T04:26:39;15.60;99.90
18189;DHT22;9219;50.396;8.546;2023-07-20T04:29:10;15.50;99.90
18189;DHT22;9219;50.396;8.546;2023-07-20T04:31:37;15.60;99.90
18189;DHT22;9219;50.396;8.546;2023-07-20T04:39:11;15.40;99.90
18189;DHT22;9219;50.396;8.546;2023-07-20T04:41:56;15.60;99.90
18189;DHT22;9219;50.396;8.546;2023-07-20T04:44:24;15.40;99.90
18189;DHT22;9219;50.396;8.546;2023-07-20T04:46:53;15.20;99.90
18189;DHT22;9219;50.396;8.546;2023-07-20T04:49:22;15.30;99.90
18189;DHT22;9219;50.396;8.546;2023-07-20T04:51:49;15.20;99.90
18189;DHT22;9219;50.396;8.546;2023-07-20T04:54:18;15.20;99.90
18189;DHT22;9219;50.396;8.546;2023-07-20T05:01:38;15.10;99.90
18189;DHT22;9219;50.396;8.546;2023-07-20T05:04:06;15.20;99.90
18189;DHT22;9219;50.396;8.546;2023-07-20T05:06:35;15.20;99.90
18189;DHT22;9219;50.396;8.546;2023-07-20T05:09:03;15.10;99.90
18189;DHT22;9219;50.396;8.546;2023-07-20T05:11:31;15.20;99.90
18189;DHT22;9219;50.396;8.546;2023-07-20T05:14:00;15.30;99.90
18189;DHT22;9219;50.396;8.546;2023-07-20T05:16:28;15.30;99.90
18189;DHT22;9219;50.396;8.546;2023-07-20T05:24:01;15.40;99.90
18189;DHT22;9219;50.396;8.546;2023-07-20T05:26:32;15.40;99.90
18189;DHT22;9219;50.396;8.546;2023-07-20T05:29:02;15.30;99.90
18189;DHT22;9219;50.396;8.546;2023-07-20T05:31:31;15.40;99.90
18189;DHT22;9219;50.396;8.546;2023-07-20T05:33:58;15.40;99.90
18189;DHT22;9219;50.396;8.546;2023-07-20T05:36:28;15.30;99.90
18189;DHT22;9219;50.396;8.546;2023-07-20T05:38:57;15.30;99.90
18189;DHT22;9219;50.396;8.546;2023-07-20T05:41:28;15.40;99.90
18189;DHT22;9219;50.396;8.546;2023-07-20T05:49:04;15.80;99.90
18189;DHT22;9219;50.396;8.546;2023-07-20T05:51:33;15.80;99.90
18189;DHT22;9219;50.396;8.546;2023-07-20T05:54:02;15.80;99.90
18189;DHT22;9219;50.396;8.546;2023-07-20T05:56:30;16.00;99.90
18189;DHT22;9219;50.396;8.546;2023-07-20T05:59:01;15.90;99.90
18189;DHT22;9219;50.396;8.546;2023-07-20T06:01:29;15.90;99.90
18189;DHT22;9219;50.396;8.546;2023-07-20T06:03:57;16.00;99.90
18189;DHT22;9219;50.396;8.546;2023-07-20T06:11:02;16.10;99.90
18189;DHT22;9219;50.396;8.546;2023-07-20T06:13:30;16.00;99.90
18189;DHT22;9219;50.396;8.546;2023-07-20T06:15:57;16.00;99.90
18189;DHT22;9219;50.396;8.546;2023-07-20T06:18:25;16.00;99.90
18189;DHT22;9219;50.396;8.546;2023-07-20T06:20:53;16.10;99.90
18189;DHT22;9219;50.396;8.546;2023-07-20T06:23:21;16.10;99.90
18189;DHT22;9219;50.396;8.546;2023-07-20T06:25:49;16.00;99.90
18189;DHT22;9219;50.396;8.546;2023-07-20T06:33:31;16.00;99.90
18189;DHT22;9219;50.396;8.546;2023-07-20T06:35:59;16.80;99.90
18189;DHT22;9219;50.396;8.546;2023-07-20T06:38:27;17.10;99.90
18189;DHT22;9219;50.396;8.546;2023-07-20T06:40:58;16.90;99.90
18189;DHT22;9219;50.396;8.546;2023-07-20T06:43:33;16.70;99.90
18189;DHT22;9219;50.396;8.546;2023-07-20T06:46:04;16.70;99.90
18189;DHT22;9219;50.396;8.546;2023-07-20T06:48:32;16.80;99.90
18189;DHT22;9219;50.396;8.546;2023-07-20T06:56:21;16.70;99.90
18189;DHT22;9219;50.396;8.546;2023-07-20T06:58:54;16.70;99.90
18189;DHT22;9219;50.396;8.546;2023-07-20T07:01:21;16.50;99.90
18189;DHT22;9219;50.396;8.546;2023-07-20T07:03:50;16.30;99.90
18189;DHT22;9219;50.396;8.546;2023-07-20T07:06:22;16.30;99.90
18189;DHT22;9219;50.396;8.546;2023-07-20T08:02:15;18.10;99.90
18189;DHT22;9219;50.396;8.546;2023-07-20T08:04:43;17.80;99.90
18189;DHT22;9219;50.396;8.546;2023-07-20T08:07:10;17.90;99.90
18189;DHT22;9219;50.396;8.546;2023-07-20T08:09:38;18.40;99.90
18189;DHT22;9219;50.396;8.546;2023-07-20T08:12:06;18.90;99.90
18189;DHT22;9219;50.396;8.546;2023-07-20T08:14:34;19.10;99.90
18189;DHT22;9219;50.396;8.546;2023-07-20T08:17:01;19.20;99.90
18189;DHT22;9219;50.396;8.546;2023-07-20T08:24:34;19.20;99.90
18189;DHT22;9219;50.396;8.546;2023-07-20T08:27:03;19.20;99.90
18189;DHT22;9219;50.396;8.546;2023-07-20T08:29:32;19.10;99.90
18189;DHT22;9219;50.396;8.546;2023-07-20T08:32:02;18.80;99.90
18189;DHT22;9219;50.396;8.546;2023-07-20T08:34:30;18.40;99.90
18189;DHT22;9219;50.396;8.546;2023-07-20T08:37:00;18.20;99.90
18189;DHT22;9219;50.396;8.546;2023-07-20T08:39:27;18.40;99.90
18189;DHT22;9219;50.396;8.546;2023-07-20T08:46:56;18.80;99.90
18189;DHT22;9219;50.396;8.546;2023-07-20T08:49:26;19.50;99.90
18189;DHT22;9219;50.396;8.546;2023-07-20T08:51:54;19.20;99.90
18189;DHT22;9219;50.396;8.546;2023-07-20T08:54:22;19.00;99.90
18189;DHT22;9219;50.396;8.546;2023-07-20T08:56:50;19.20;99.90
18189;DHT22;9219;50.396;8.546;2023-07-20T08:59:18;19.50;99.90
18189;DHT22;9219;50.396;8.546;2023-07-20T09:01:46;19.90;99.90
18189;DHT22;9219;50.396;8.546;2023-07-20T09:09:18;20.10;99.90
18189;DHT22;9219;50.396;8.546;2023-07-20T09:11:47;19.10;99.90
18189;DHT22;9219;50.396;8.546;2023-07-20T09:14:15;18.90;99.90
18189;DHT22;9219;50.396;8.546;2023-07-20T09:16:49;18.80;99.90
18189;DHT22;9219;50.396;8.546;2023-07-20T09:19:18;18.70;99.90
18189;DHT22;9219;50.396;8.546;2023-07-20T09:21:48;18.60;99.90
18189;DHT22;9219;50.396;8.546;2023-07-20T09:24:19;18.50;99.90
18189;DHT22;9219;50.396;8.546;2023-07-20T09:32:03;18.80;99.90
18189;DHT22;9219;50.396;8.546;2023-07-20T09:34:31;19.40;99.90
18189;DHT22;9219;50.396;8.546;2023-07-20T09:37:02;20.10;99.90
18189;DHT22;9219;50.396;8.546;2023-07-20T09:39:31;20.50;99.90
18189;DHT22;9219;50.396;8.546;2023-07-20T09:42:00;19.90;99.90
18189;DHT22;9219;50.396;8.546;2023-07-20T09:44:34;19.70;99.90
18189;DHT22;9219;50.396;8.546;2023-07-20T09:47:06;19.80;99.90
18189;DHT22;9219;50.396;8.546;2023-07-20T09:54:38;20.20;99.90
18189;DHT22;9219;50.396;8.546;2023-07-20T09:57:07;20.70;99.90
18189;DHT22;9219;50.396;8.546;2023-07-20T09:59:35;20.70;99.90
18189;DHT22;9219;50.396;8.546;2023-07-20T10:02:12;20.90;99.90
18189;DHT22;9219;50.396;8.546;2023-07-20T10:04:46;21.10;99.90
18189;DHT22;9219;50.396;8.546;2023-07-20T10:07:16;21.10;99.90
18189;DHT22;9219;50.396;8.546;2023-07-20T10:09:46;21.20;99.90
18189;DHT22;9219;50.396;8.546;2023-07-20T10:17:26;21.70;99.90
18189;DHT22;9219;50.396;8.546;2023-07-20T10:19:57;21.10;99.90
18189;DHT22;9219;50.396;8.546;2023-07-20T10:22:33;21.50;99.90
18189;DHT22;9219;50.396;8.546;2023-07-20T10:25:09;21.50;99.90
18189;DHT22;9219;50.396;8.546;2023-07-20T10:27:43;21.60;99.90
18189;DHT22;9219;50.396;8.546;2023-07-20T10:30:11;21.90;99.90
18189;DHT22;9219;50.396;8.546;2023-07-20T10:32:40;22.40;99.90
18189;DHT22;9219;50.396;8.546;2023-07-20T10:40:39;22.60;99.90
18189;DHT22;9219;50.396;8.546;2023-07-20T10:43:09;23.10;99.90
18189;DHT22;9219;50.396;8.546;2023-07-20T10:45:40;23.30;99.90
18189;DHT22;9219;50.396;8.546;2023-07-20T10:48:16;23.30;99.90
18189;DHT22;9219;50.396;8.546;2023-07-20T10:50:45;23.40;99.90
18189;DHT22;9219;50.396;8.546;2023-07-20T10:53:16;23.50;99.90
18189;DHT22;9219;50.396;8.546;2023-07-20T10:55:45;23.20;99.90
18189;DHT22;9219;50.396;8.546;2023-07-20T11:03:28;23.40;99.90
18189;DHT22;9219;50.396;8.546;2023-07-20T11:09:09;22.70;99.90
18189;DHT22;9219;50.396;8.546;2023-07-20T11:11:42;22.80;99.90
18189;DHT22;9219;50.396;8.546;2023-07-20T11:14:10;23.30;99.90
18189;DHT22;9219;50.396;8.546;2023-07-20T11:16:48;23.00;99.90
18189;DHT22;9219;50.396;8.546;2023-07-20T11:19:19;23.30;99.90
18189;DHT22;9219;50.396;8.546;2023-07-20T11:26:56;23.60;99.90
18189;DHT22;9219;50.396;8.546;2023-07-20T11:29:27;24.20;99.90
18189;DHT22;9219;50.396;8.546;2023-07-20T11:31:59;24.30;99.90
18189;DHT22;9219;50.396;8.546;2023-07-20T11:34:30;24.20;99.90
18189;DHT22;9219;50.396;8.546;2023-07-20T11:37:01;23.70;99.90
18189;DHT22;9219;50.396;8.546;2023-07-20T11:39:36;24.10;99.90
18189;DHT22;9219;50.396;8.546;2023-07-20T11:42:05;23.70;99.90
18189;DHT22;9219;50.396;8.546;2023-07-20T11:44:34;23.60;99.90
18189;DHT22;9219;50.396;8.546;2023-07-20T11:51:39;23.70;99.90
18189;DHT22;9219;50.396;8.546;2023-07-20T11:54:08;23.50;99.90
18189;DHT22;9219;50.396;8.546;2023-07-20T11:56:36;23.00;99.90
18189;DHT22;9219;50.396;8.546;2023-07-20T11:59:08;23.20;99.90
18189;DHT22;9219;50.396;8.546;2023-07-20T12:01:36;23.40;99.90
18189;DHT22;9219;50.396;8.546;2023-07-20T12:04:05;23.90;99.90
18189;DHT22;9219;50.396;8.546;2023-07-20T12:06:34;24.60;99.90
18189;DHT22;9219;50.396;8.546;2023-07-20T12:09:03;24.50;99.90
18189;DHT22;9219;50.396;8.546;2023-07-20T12:14:37;23.30;99.90
18189;DHT22;9219;50.396;8.546;2023-07-20T12:17:08;23.20;99.90
18189;DHT22;9219;50.396;8.546;2023-07-20T12:19:38;23.60;99.90
18189;DHT22;9219;50.396;8.546;2023-07-20T12:22:06;23.80;99.90
18189;DHT22;9219;50.396;8.546;2023-07-20T12:24:33;24.50;99.90
18189;DHT22;9219;50.396;8.546;2023-07-20T12:27:01;24.00;99.90
18189;DHT22;9219;50.396;8.546;2023-07-20T12:29:29;24.20;99.90
18189;DHT22;9219;50.396;8.546;2023-07-20T12:38:21;24.00;99.90
18189;DHT22;9219;50.396;8.546;2023-07-20T12:40:49;23.50;99.90
18189;DHT22;9219;50.396;8.546;2023-07-20T12:43:17;23.60;99.90
18189;DHT22;9219;50.396;8.546;2023-07-20T12:45:45;23.50;99.90
18189;DHT22;9219;50.396;8.546;2023-07-20T12:48:13;23.40;99.90
18189;DHT22;9219;50.396;8.546;2023-07-20T12:50:41;23.50;99.90
18189;DHT22;9219;50.396;8.546;2023-07-20T12:53:11;23.80;99.90
18189;DHT22;9219;50.396;8.546;2023-07-20T12:58:20;23.80;99.90
18189;DHT22;9219;50.396;8.546;2023-07-20T13:00:49;24.60;99.90
18189;DHT22;9219;50.396;8.546;2023-07-20T13:03:18;25.00;99.90
18189;DHT22;9219;50.396;8.546;2023-07-20T13:05:49;25.00;99.90
18189;DHT22;9219;50.396;8.546;2023-07-20T13:08:19;24.70;99.90
18189;DHT22;9219;50.396;8.546;2023-07-20T13:10:48;24.80;99.90
18189;DHT22;9219;50.396;8.546;2023-07-20T13:13:16;24.50;99.90
18189;DHT22;9219;50.396;8.546;2023-07-20T13:18:37;24.20;99.90
18189;DHT22;9219;50.396;8.546;2023-07-20T13:21:07;24.70;99.90
18189;DHT22;9219;50.396;8.546;2023-07-20T13:23:39;24.30;99.90
18189;DHT22;9219;50.396;8.546;2023-07-20T13:26:07;24.60;99.90
18189;DHT22;9219;50.396;8.546;2023-07-20T13:28:35;25.30;99.90
18189;DHT22;9219;50.396;8.546;2023-07-20T13:31:04;25.30;99.90
18189;DHT22;9219;50.396;8.546;2023-07-20T13:33:31;24.30;99.90
18189;DHT22;9219;50.396;8.546;2023-07-20T13:38:59;24.50;99.90
18189;DHT22;9219;50.396;8.546;2023-07-20T13:41:27;23.40;99.90
18189;DHT22;9219;50.396;8.546;2023-07-20T13:43:56;23.70;99.90
18189;DHT22;9219;50.396;8.546;2023-07-20T13:46:24;23.90;99.90
18189;DHT22;9219;50.396;8.546;2023-07-20T13:48:55;23.80;99.90
18189;DHT22;9219;50.396;8.546;2023-07-20T13:51:25;24.00;99.90
18189;DHT22;9219;50.396;8.546;2023-07-20T13:53:54;24.00;99.90
18189;DHT22;9219;50.396;8.546;2023-07-20T13:56:23;23.60;99.90
18189;DHT22;9219;50.396;8.546;2023-07-20T14:04:05;23.50;99.90
18189;DHT22;9219;50.396;8.546;2023-07-20T14:06:33;23.00;99.90
18189;DHT22;9219;50.396;8.546;2023-07-20T14:09:01;23.10;99.90
18189;DHT22;9219;50.396;8.546;2023-07-20T14:11:30;23.30;99.90
18189;DHT22;9219;50.396;8.546;2023-07-20T14:14:01;22.70;99.90
18189;DHT22;9219;50.396;8.546;2023-07-20T14:16:29;22.40;99.90
18189;DHT22;9219;50.396;8.546;2023-07-20T14:18:59;22.60;99.90
18189;DHT22;9219;50.396;8.546;2023-07-20T14:24:47;23.00;99.90
18189;DHT22;9219;50.396;8.546;2023-07-20T14:27:15;22.90;99.90
18189;DHT22;9219;50.396;8.546;2023-07-20T14:29:43;22.70;99.90
18189;DHT22;9219;50.396;8.546;2023-07-20T14:32:11;22.50;99.90
18189;DHT22;9219;50.396;8.546;2023-07-20T14:34:38;22.70;99.90
18189;DHT22;9219;50.396;8.546;2023-07-20T14:37:07;23.10;99.90
18189;DHT22;9219;50.396;8.546;2023-07-20T14:39:34;23.10;99.90
18189;DHT22;9219;50.396;8.546;2023-07-20T14:42:03;23.20;99.90
18189;DHT22;9219;50.396;8.546;2023-07-20T14:49:36;23.10;99.90
18189;DHT22;9219;50.396;8.546;2023-07-20T14:52:05;22.70;99.90
18189;DHT22;9219;50.396;8.546;2023-07-20T14:54:41;22.60;99.90
18189;DHT22;9219;50.396;8.546;2023-07-20T14:57:09;22.60;99.90
18189;DHT22;9219;50.396;8.546;2023-07-20T14:59:41;22.60;99.90
18189;DHT22;9219;50.396;8.546;2023-07-20T15:02:10;22.60;99.90
18189;DHT22;9219;50.396;8.546;2023-07-20T15:04:45;22.50;99.90
18189;DHT22;9219;50.396;8.546;2023-07-20T15:12:24;22.50;99.90
18189;DHT22;9219;50.396;8.546;2023-07-20T15:15:03;22.40;99.90
18189;DHT22;9219;50.396;8.546;2023-07-20T15:17:31;22.50;99.90
18189;DHT22;9219;50.396;8.546;2023-07-20T15:19:59;22.70;99.90
18189;DHT22;9219;50.396;8.546;2023-07-20T15:22:26;23.10;99.90
18189;DHT22;9219;50.396;8.546;2023-07-20T15:24:54;23.30;99.90
18189;DHT22;9219;50.396;8.546;2023-07-20T15:27:21;23.30;99.90
18189;DHT22;9219;50.396;8.546;2023-07-20T15:33:37;23.40;99.90
18189;DHT22;9219;50.396;8.546;2023-07-20T15:36:05;23.00;99.90
18189;DHT22;9219;50.396;8.546;2023-07-20T15:38:33;23.00;99.90
18189;DHT22;9219;50.396;8.546;2023-07-20T15:41:01;23.30;99.90
18189;DHT22;9219;50.396;8.546;2023-07-20T15:43:30;23.50;99.90
18189;DHT22;9219;50.396;8.546;2023-07-20T15:46:02;23.40;99.90
18189;DHT22;9219;50.396;8.546;2023-07-20T15:48:35;23.10;99.90
18189;DHT22;9219;50.396;8.546;2023-07-20T15:53:47;23.40;99.90
18189;DHT22;9219;50.396;8.546;2023-07-20T15:56:15;23.90;99.90
18189;DHT22;9219;50.396;8.546;2023-07-20T15:58:43;23.80;99.90
18189;DHT22;9219;50.396;8.546;2023-07-20T16:01:11;23.90;99.90
18189;DHT22;9219;50.396;8.546;2023-07-20T16:03:38;24.10;99.90
18189;DHT22;9219;50.396;8.546;2023-07-20T16:06:06;24.20;99.90
18189;DHT22;9219;50.396;8.546;2023-07-20T16:08:33;24.00;99.90
18189;DHT22;9219;50.396;8.546;2023-07-20T16:14:15;24.10;99.90
18189;DHT22;9219;50.396;8.546;2023-07-20T16:16:43;23.80;99.90
18189;DHT22;9219;50.396;8.546;2023-07-20T16:19:11;23.70;99.90
18189;DHT22;9219;50.396;8.546;2023-07-20T16:21:38;23.60;99.90
18189;DHT22;9219;50.396;8.546;2023-07-20T16:24:06;23.40;99.90
18189;DHT22;9219;50.396;8.546;2023-07-20T16:26:34;23.40;99.90
18189;DHT22;9219;50.396;8.546;2023-07-20T16:29:02;23.30;99.90
18189;DHT22;9219;50.396;8.546;2023-07-20T16:34:59;23.50;99.90
18189;DHT22;9219;50.396;8.546;2023-07-20T16:37:38;23.50;99.90
18189;DHT22;9219;50.396;8.546;2023-07-20T16:40:08;23.70;99.90
18189;DHT22;9219;50.396;8.546;2023-07-20T16:42:41;23.80;99.90
18189;DHT22;9219;50.396;8.546;2023-07-20T16:45:11;23.90;99.90
18189;DHT22;9219;50.396;8.546;2023-07-20T16:47:39;23.70;99.90
18189;DHT22;9219;50.396;8.546;2023-07-20T16:50:08;23.60;99.90
18189;DHT22;9219;50.396;8.546;2023-07-20T16:57:41;23.50;99.90
18189;DHT22;9219;50.396;8.546;2023-07-20T17:00:10;23.50;99.90
18189;DHT22;9219;50.396;8.546;2023-07-20T17:02:38;23.50;99.90
18189;DHT22;9219;50.396;8.546;2023-07-20T17:05:06;23.40;99.90
18189;DHT22;9219;50.396;8.546;2023-07-20T17:07:36;23.30;99.90
18189;DHT22;9219;50.396;8.546;2023-07-20T17:10:04;23.30;99.90
18189;DHT22;9219;50.396;8.546;2023-07-20T17:12:34;23.30;99.90
18189;DHT22;9219;50.396;8.546;2023-07-20T17:18:38;23.60;99.90
18189;DHT22;9219;50.396;8.546;2023-07-20T17:21:06;23.90;99.90
18189;DHT22;9219;50.396;8.546;2023-07-20T17:23:34;23.90;99.90
18189;DHT22;9219;50.396;8.546;2023-07-20T17:26:05;24.00;99.90
18189;DHT22;9219;50.396;8.546;2023-07-20T17:28:35;23.90;99.90
18189;DHT22;9219;50.396;8.546;2023-07-20T17:31:06;24.00;99.90
18189;DHT22;9219;50.396;8.546;2023-07-20T17:33:34;23.70;99.90
18189;DHT22;9219;50.396;8.546;2023-07-20T17:36:04;23.80;99.90
18189;DHT22;9219;50.396;8.546;2023-07-20T17:43:40;23.90;99.90
18189;DHT22;9219;50.396;8.546;2023-07-20T17:46:07;24.00;99.90
18189;DHT22;9219;50.396;8.546;2023-07-20T17:48:37;23.90;99.90
18189;DHT22;9219;50.396;8.546;2023-07-20T17:51:04;23.70;99.90
18189;DHT22;9219;50.396;8.546;2023-07-20T17:53:33;23.70;99.90
18189;DHT22;9219;50.396;8.546;2023-07-20T17:56:00;23.80;99.90
18189;DHT22;9219;50.396;8.546;2023-07-20T17:58:29;23.80;99.90
18189;DHT22;9219;50.396;8.546;2023-07-20T18:03:37;23.70;99.90
18189;DHT22;9219;50.396;8.546;2023-07-20T18:06:06;23.40;99.90
18189;DHT22;9219;50.396;8.546;2023-07-20T18:08:33;23.40;99.90
18189;DHT22;9219;50.396;8.546;2023-07-20T18:11:04;23.40;99.90
18189;DHT22;9219;50.396;8.546;2023-07-20T18:13:32;23.50;99.90
18189;DHT22;9219;50.396;8.546;2023-07-20T18:15:59;23.50;99.90
18189;DHT22;9219;50.396;8.546;2023-07-20T18:18:27;23.50;99.90
18189;DHT22;9219;50.396;8.546;2023-07-20T18:26:05;23.50;99.90
18189;DHT22;9219;50.396;8.546;2023-07-20T18:28:33;23.60;99.90
18189;DHT22;9219;50.396;8.546;2023-07-20T18:31:04;23.60;99.90
18189;DHT22;9219;50.396;8.546;2023-07-20T18:33:32;23.60;99.90
18189;DHT22;9219;50.396;8.546;2023-07-20T18:35:59;23.70;99.90
18189;DHT22;9219;50.396;8.546;2023-07-20T18:38:27;23.60;99.90
18189;DHT22;9219;50.396;8.546;2023-07-20T18:40:55;23.60;99.90
18189;DHT22;9219;50.396;8.546;2023-07-20T18:46:04;23.60;99.90
18189;DHT22;9219;50.396;8.546;2023-07-20T18:48:31;23.60;99.90
18189;DHT22;9219;50.396;8.546;2023-07-20T18:50:59;23.60;99.90
18189;DHT22;9219;50.396;8.546;2023-07-20T18:53:27;23.60;99.90
18189;DHT22;9219;50.396;8.546;2023-07-20T18:55:54;23.60;99.90
18189;DHT22;9219;50.396;8.546;2023-07-20T18:58:22;23.60;99.90
18189;DHT22;9219;50.396;8.546;2023-07-20T19:00:50;23.60;99.90
18189;DHT22;9219;50.396;8.546;2023-07-20T19:08:22;23.60;99.90
18189;DHT22;9219;50.396;8.546;2023-07-20T19:10:51;23.50;99.90
18189;DHT22;9219;50.396;8.546;2023-07-20T19:13:27;23.50;99.90
18189;DHT22;9219;50.396;8.546;2023-07-20T19:15:55;23.40;99.90
18189;DHT22;9219;50.396;8.546;2023-07-20T19:18:26;23.30;99.90
18189;DHT22;9219;50.396;8.546;2023-07-20T19:20:53;23.30;99.90
18189;DHT22;9219;50.396;8.546;2023-07-20T19:23:22;23.40;99.90
18189;DHT22;9219;50.396;8.546;2023-07-20T19:30:54;23.10;99.90
18189;DHT22;9219;50.396;8.546;2023-07-20T19:33:22;22.80;99.90
18189;DHT22;9219;50.396;8.546;2023-07-20T19:35:50;22.60;99.90
18189;DHT22;9219;50.396;8.546;2023-07-20T19:38:24;22.40;99.90
18189;DHT22;9219;50.396;8.546;2023-07-20T19:40:52;22.30;99.90
18189;DHT22;9219;50.396;8.546;2023-07-20T19:43:21;22.30;99.90
18189;DHT22;9219;50.396;8.546;2023-07-20T19:45:49;22.20;99.90
18189;DHT22;9219;50.396;8.546;2023-07-20T19:51:49;21.70;99.90
18189;DHT22;9219;50.396;8.546;2023-07-20T19:54:17;21.50;99.90
18189;DHT22;9219;50.396;8.546;2023-07-20T19:56:48;21.50;99.90
18189;DHT22;9219;50.396;8.546;2023-07-20T19:59:16;21.50;99.90
18189;DHT22;9219;50.396;8.546;2023-07-20T20:01:44;21.50;99.90
18189;DHT22;9219;50.396;8.546;2023-07-20T20:04:11;21.60;99.90
18189;DHT22;9219;50.396;8.546;2023-07-20T20:06:42;21.70;99.90
18189;DHT22;9219;50.396;8.546;2023-07-20T20:11:48;21.80;99.90
18189;DHT22;9219;50.396;8.546;2023-07-20T20:14:17;21.60;99.90
18189;DHT22;9219;50.396;8.546;2023-07-20T20:16:45;21.70;99.90
18189;DHT22;9219;50.396;8.546;2023-07-20T20:19:13;21.60;99.90
18189;DHT22;9219;50.396;8.546;2023-07-20T20:21:40;21.60;99.90
18189;DHT22;9219;50.396;8.546;2023-07-20T20:24:08;21.50;99.90
18189;DHT22;9219;50.396;8.546;2023-07-20T20:26:36;21.60;99.90
18189;DHT22;9219;50.396;8.546;2023-07-20T20:29:07;21.60;99.90
18189;DHT22;9219;50.396;8.546;2023-07-20T20:36:39;21.40;99.90
18189;DHT22;9219;50.396;8.546;2023-07-20T20:39:10;21.20;99.90
18189;DHT22;9219;50.396;8.546;2023-07-20T20:41:38;21.10;99.90
18189;DHT22;9219;50.396;8.546;2023-07-20T20:44:11;21.10;99.90
18189;DHT22;9219;50.396;8.546;2023-07-20T20:46:41;21.00;99.90
18189;DHT22;9219;50.396;8.546;2023-07-20T20:49:10;21.00;99.90
18189;DHT22;9219;50.396;8.546;2023-07-20T20:51:38;21.00;99.90